Terminal Aerodrome Forecast
Issued by NWS

Home | Current Version | Previous Version | Text Only | Print | Product List | Glossary On
Versions: 1 2 3 4 5 6 7 8 9 10 11 12 13 14 15 16 17 18 19 20 21 22 23 24 25
167
FTUS41 KOKX 191734
TAFHPN
TAF
KHPN 191734Z 1918/2018 17007KT P6SM SCT025 BKN040
     FM192100 18005KT 4SM -RA BR BKN025 OVC040 WS020/21040KT
     FM200200 20003KT 3SM BR BKN006 OVC015 WS020/23035KT
     FM200600 21003KT 1/2SM FG BKN005 OVC012 WS020/23035KT
      TEMPO 2008/2012 1/4SM FG OVC002
     FM201300 21004KT 1SM BR SCT006 BKN020
     FM201500 22006KT 6SM BR FEW010 BKN025 BKN250
     FM201700 22010KT P6SM SCT025 BKN250
      AMD NOT SKED=

USA.gov is the U.S. government's official web portal to all federal, state and local government web resources and services.